ミラノ/マルペンサ の空港の天気 - METARとTAF

ミラノ・マルペンサ国際空港 ( LIMC / MXP ) - イタリア ミラノ
飛行場実況気象(Metar)
観測時間02/17 15:50 CET (02/17 14:50 UTC)
風向・風速西南西 3m/s
視程10km以上
天気現象
なし
気温16℃
湿度34%
気圧1026hPa
METARLIMC 171450Z 24006KT 220V280 CAVOK 16/M00 Q1026 NOSIG
過去の天気等 Google飛行場航空写真 Wunderground天気予報

過去48時間のMETAR

飛行場予報(TAF)
発表時間: 2/17 12:00 CET (2/17 11:00 UTC)
予報対象時間: 17日13時 CET ~ 18日19時 CET
風向・風速不定 3m/s
視程10km以上
なし
18日1時 CET ~ 18日9時 CET に一時的に
視程3000m
天気現象散在した霧
TAF LIMC 171100Z 1712/1818 VRB05KT CAVOK
TEMPO 1800/1808 3000 BCFG